Time,TemperatureF,DewpointF,PressureIn,WindDirection,WindDirectionDegrees,WindSpeedMPH,WindSpeedGustMPH,Humidity,HourlyPrecipIn,Conditions,Clouds,dailyrainin,SoftwareType,DateUTC
2013-02-27 00:00:00,33.3,3.7,27.82,North,357,0.0,0.0,28,0.00,,---,0.00,VWS V14.01,2013-02-27 08:00:00,
2013-02-27 00:05:00,33.1,3.5,27.82,North,0,0.0,0.0,28,0.00,,---,0.00,VWS V14.01,2013-02-27 08:05:00,
2013-02-27 00:10:00,33.1,3.5,27.82,NNW,328,0.0,0.0,28,0.00,,---,0.00,VWS V14.01,2013-02-27 08:10:00,
2013-02-27 00:15:00,33.3,3.7,27.82,NNW,340,0.0,0.0,28,0.00,,---,0.00,VWS V14.01,2013-02-27 08:15:00,
2013-02-27 00:20:00,33.1,3.5,27.82,WNW,290,0.0,0.0,28,0.00,,---,0.00,VWS V14.01,2013-02-27 08:20:00,
2013-02-27 00:25:00,33.1,3.5,27.82,NNW,331,0.0,0.0,28,0.00,,---,0.00,VWS V14.01,2013-02-27 08:25:00,
2013-02-27 00:30:00,33.1,3.5,27.82,NNW,338,0.0,0.0,28,0.00,,---,0.00,VWS V14.01,2013-02-27 08:30:00,
2013-02-27 00:35:00,33.1,3.5,27.82,NNW,342,0.0,0.0,28,0.00,,---,0.00,VWS V14.01,2013-02-27 08:35:00,
2013-02-27 00:40:00,33.1,3.5,27.82,NNW,329,0.0,0.0,28,0.00,,---,0.00,VWS V14.01,2013-02-27 08:40:00,
2013-02-27 00:45:00,33.1,3.5,27.82,North,0,0.0,0.0,28,0.00,,---,0.00,VWS V14.01,2013-02-27 08:45:00,
2013-02-27 00:50:00,33.3,1.2,27.82,NNW,332,0.0,0.0,25,0.00,,---,0.00,VWS V14.01,2013-02-27 08:50:00,
2013-02-27 00:55:00,33.3,1.2,27.82,WNW,302,0.0,0.0,25,0.00,,---,0.00,VWS V14.01,2013-02-27 08:55:00,
2013-02-27 01:00:00,33.3,1.2,27.82,NNE,17,0.0,0.0,25,0.00,,---,0.00,VWS V14.01,2013-02-27 09:00:00,
2013-02-27 01:05:00,33.4,1.4,27.82,NW,323,0.0,0.0,25,0.00,,---,0.00,VWS V14.01,2013-02-27 09:05:00,
2013-02-27 01:10:00,33.6,1.6,27.82,NNE,14,0.0,0.0,25,0.00,,---,0.00,VWS V14.01,2013-02-27 09:10:00,
2013-02-27 01:15:00,33.4,1.4,27.82,NNE,17,0.0,0.0,25,0.00,,---,0.00,VWS V14.01,2013-02-27 09:15:00,
2013-02-27 01:20:00,33.4,1.4,27.82,North,353,0.0,0.0,25,0.00,,---,0.00,VWS V14.01,2013-02-27 09:20:00,
2013-02-27 01:25:00,33.4,1.4,27.82,North,5,0.0,0.0,25,0.00,,---,0.00,VWS V14.01,2013-02-27 09:25:00,
2013-02-27 01:30:00,33.3,1.2,27.82,North,357,0.0,0.0,25,0.00,,---,0.00,VWS V14.01,2013-02-27 09:30:00,
2013-02-27 01:35:00,33.3,1.2,27.82,NNW,336,0.0,0.0,25,0.00,,---,0.00,VWS V14.01,2013-02-27 09:35:00,
2013-02-27 01:40:00,33.1,1.1,27.82,North,353,0.0,0.0,25,0.00,,---,0.00,VWS V14.01,2013-02-27 09:40:00,
2013-02-27 01:45:00,33.1,3.5,27.82,WNW,293,0.0,0.0,28,0.00,,---,0.00,VWS V14.01,2013-02-27 09:45:00,
2013-02-27 01:50:00,33.1,1.1,27.79,NNW,339,0.0,0.0,25,0.00,,---,0.00,VWS V14.01,2013-02-27 09:50:00,
2013-02-27 01:55:00,33.6,-0.2,27.79,SSE,159,0.0,0.0,23,0.00,,---,0.00,VWS V14.01,2013-02-27 09:55:00,
2013-02-27 02:00:00,34.3,-0.6,27.79,NNW,334,0.0,0.0,22,0.00,,---,0.00,VWS V14.01,2013-02-27 10:00:00,
2013-02-27 02:05:00,34.0,-0.9,27.79,North,4,0.0,0.0,22,0.00,,---,0.00,VWS V14.01,2013-02-27 10:05:00,
2013-02-27 02:10:00,34.2,-0.7,27.79,North,5,0.0,0.0,22,0.00,,---,0.00,VWS V14.01,2013-02-27 10:10:00,
2013-02-27 02:15:00,34.5,-0.4,27.79,WNW,284,0.0,0.0,22,0.00,,---,0.00,VWS V14.01,2013-02-27 10:15:00,
2013-02-27 02:20:00,34.2,-0.7,27.82,NNW,341,0.0,0.0,22,0.00,,---,0.00,VWS V14.01,2013-02-27 10:20:00,
2013-02-27 02:25:00,34.0,-0.9,27.82,North,357,0.0,0.0,22,0.00,,---,0.00,VWS V14.01,2013-02-27 10:25:00,
2013-02-27 02:30:00,33.8,-1.0,27.82,ENE,74,0.0,0.0,22,0.00,,---,0.00,VWS V14.01,2013-02-27 10:30:00,
2013-02-27 02:35:00,33.8,-1.0,27.79,North,353,0.0,0.0,22,0.00,,---,0.00,VWS V14.01,2013-02-27 10:35:00,
2013-02-27 02:40:00,33.6,1.6,27.79,NNW,330,0.0,0.0,25,0.00,,---,0.00,VWS V14.01,2013-02-27 10:40:00,
2013-02-27 02:45:00,33.6,1.6,27.79,NNW,332,0.0,0.0,25,0.00,,---,0.00,VWS V14.01,2013-02-27 10:45:00,
2013-02-27 02:50:00,33.3,1.2,27.79,North,357,0.0,0.0,25,0.00,,---,0.00,VWS V14.01,2013-02-27 10:50:00,
2013-02-27 02:55:00,33.3,3.7,27.79,North,0,0.0,0.0,28,0.00,,---,0.00,VWS V14.01,2013-02-27 10:55:00,
2013-02-27 03:00:00,33.1,3.5,27.79,North,0,0.0,0.0,28,0.00,,---,0.00,VWS V14.01,2013-02-27 11:00:00,
2013-02-27 03:05:00,33.3,1.2,27.79,NNW,334,0.0,0.0,25,0.00,,---,0.00,VWS V14.01,2013-02-27 11:05:00,
2013-02-27 03:10:00,33.3,1.2,27.79,North,5,0.0,0.0,25,0.00,,---,0.00,VWS V14.01,2013-02-27 11:10:00,
2013-02-27 03:15:00,33.4,1.4,27.79,North,349,0.0,0.0,25,0.00,,---,0.00,VWS V14.01,2013-02-27 11:15:00,
2013-02-27 03:20:00,33.6,1.6,27.79,NNE,25,0.0,0.0,25,0.00,,---,0.00,VWS V14.01,2013-02-27 11:20:00,
2013-02-27 03:25:00,33.6,1.6,27.79,NNE,15,0.0,0.0,25,0.00,,---,0.00,VWS V14.01,2013-02-27 11:25:00,
2013-02-27 03:30:00,33.4,1.4,27.79,NNE,15,0.0,0.0,25,0.00,,---,0.00,VWS V14.01,2013-02-27 11:30:00,
2013-02-27 03:35:00,33.3,1.2,27.79,NNE,20,0.0,0.0,25,0.00,,---,0.00,VWS V14.01,2013-02-27 11:35:00,
2013-02-27 03:40:00,33.1,3.5,27.79,NNE,26,0.0,0.0,28,0.00,,---,0.00,VWS V14.01,2013-02-27 11:40:00,
2013-02-27 03:45:00,33.1,3.5,27.79,NNE,17,0.0,0.0,28,0.00,,---,0.00,VWS V14.01,2013-02-27 11:45:00,
2013-02-27 03:49:00,33.1,3.5,27.79,NNE,21,0.0,0.0,28,0.00,,---,0.00,VWS V14.01,2013-02-27 11:49:00,
2013-02-27 03:54:00,33.1,3.5,27.79,NE,43,0.0,0.0,28,0.00,,---,0.00,VWS V14.01,2013-02-27 11:54:00,
2013-02-27 03:59:00,33.1,3.5,27.79,SE,146,0.0,0.0,28,0.00,,---,0.00,VWS V14.01,2013-02-27 11:59:00,
2013-02-27 04:04:00,32.9,3.4,27.79,NNE,21,0.0,0.0,28,0.00,,---,0.00,VWS V14.01,2013-02-27 12:04:00,
2013-02-27 04:10:00,32.9,3.4,27.79,SE,144,0.0,0.0,28,0.00,,---,0.00,VWS V14.01,2013-02-27 12:10:00,
2013-02-27 04:15:00,32.9,3.4,27.79,North,353,0.0,0.0,28,0.00,,---,0.00,VWS V14.01,2013-02-27 12:15:00,
2013-02-27 04:20:00,33.1,3.5,27.79,NNW,339,0.0,0.0,28,0.00,,---,0.00,VWS V14.01,2013-02-27 12:20:00,
2013-02-27 04:25:00,33.1,1.1,27.79,NNW,333,0.0,0.0,25,0.00,,---,0.00,VWS V14.01,2013-02-27 12:25:00,
2013-02-27 04:30:00,33.4,1.4,27.79,NNE,15,0.0,0.0,25,0.00,,---,0.00,VWS V14.01,2013-02-27 12:30:00,
2013-02-27 04:35:00,33.4,1.4,27.79,NNE,33,0.0,0.0,25,0.00,,---,0.00,VWS V14.01,2013-02-27 12:35:00,
2013-02-27 04:40:00,33.4,1.4,27.79,North,0,0.0,0.0,25,0.00,,---,0.00,VWS V14.01,2013-02-27 12:40:00,
2013-02-27 04:45:00,33.4,1.4,27.79,NE,46,0.0,0.0,25,0.00,,---,0.00,VWS V14.01,2013-02-27 12:45:00,
2013-02-27 04:50:00,33.6,-0.2,27.79,NE,51,0.0,0.0,23,0.00,,---,0.00,VWS V14.01,2013-02-27 12:50:00,
2013-02-27 04:55:00,33.6,-0.2,27.79,North,357,0.0,0.0,23,0.00,,---,0.00,VWS V14.01,2013-02-27 12:55:00,
2013-02-27 05:00:00,34.0,-0.9,27.79,SE,127,0.0,0.0,22,0.00,,---,0.00,VWS V14.01,2013-02-27 13:00:00,
2013-02-27 05:05:00,34.2,-0.7,27.79,North,10,0.0,0.0,22,0.00,,---,0.00,VWS V14.01,2013-02-27 13:05:00,
2013-02-27 05:10:00,34.3,-0.6,27.79,NNE,20,0.0,0.0,22,0.00,,---,0.00,VWS V14.01,2013-02-27 13:10:00,
2013-02-27 05:15:00,34.2,-0.7,27.79,North,6,0.0,0.0,22,0.00,,---,0.00,VWS V14.01,2013-02-27 13:15:00,
2013-02-27 05:20:00,33.8,-1.0,27.79,North,5,0.0,0.0,22,0.00,,---,0.00,VWS V14.01,2013-02-27 13:20:00,
2013-02-27 05:25:00,33.8,-1.0,27.79,NE,42,0.0,0.0,22,0.00,,---,0.00,VWS V14.01,2013-02-27 13:25:00,
2013-02-27 05:30:00,34.0,-0.9,27.79,North,350,0.0,0.0,22,0.00,,---,0.00,VWS V14.01,2013-02-27 13:30:00,
2013-02-27 05:35:00,34.0,-0.9,27.82,NNE,21,0.0,0.0,22,0.00,,---,0.00,VWS V14.01,2013-02-27 13:35:00,
2013-02-27 05:40:00,33.8,-1.0,27.82,North,357,0.0,0.0,22,0.00,,---,0.00,VWS V14.01,2013-02-27 13:40:00,
2013-02-27 05:45:00,33.8,-1.0,27.82,North,0,0.0,0.0,22,0.00,,---,0.00,VWS V14.01,2013-02-27 13:45:00,
2013-02-27 05:50:00,33.6,-0.2,27.82,North,0,0.0,0.0,23,0.00,,---,0.00,VWS V14.01,2013-02-27 13:50:00,
2013-02-27 05:55:00,33.6,-0.2,27.82,NNE,29,0.0,0.0,23,0.00,,---,0.00,VWS V14.01,2013-02-27 13:55:00,
2013-02-27 06:00:00,33.6,1.6,27.82,North,7,0.0,0.0,25,0.00,,---,0.00,VWS V14.01,2013-02-27 14:00:00,
2013-02-27 06:05:00,33.6,-0.2,27.82,NNE,21,0.0,0.0,23,0.00,,---,0.00,VWS V14.01,2013-02-27 14:05:00,
2013-02-27 06:10:00,33.6,-0.2,27.82,NNE,25,0.0,0.0,23,0.00,,---,0.00,VWS V14.01,2013-02-27 14:10:00,
2013-02-27 06:15:00,33.6,-0.2,27.82,NNE,27,0.0,0.0,23,0.00,,---,0.00,VWS V14.01,2013-02-27 14:15:00,
2013-02-27 06:20:00,33.4,1.4,27.82,North,0,0.0,0.0,25,0.00,,---,0.00,VWS V14.01,2013-02-27 14:20:00,
2013-02-27 06:25:00,33.3,1.2,27.82,NNW,342,0.0,0.0,25,0.00,,---,0.00,VWS V14.01,2013-02-27 14:25:00,
2013-02-27 06:30:00,33.3,1.2,27.82,NNW,338,0.0,0.0,25,0.00,,---,0.00,VWS V14.01,2013-02-27 14:30:00,
2013-02-27 06:35:00,33.3,1.2,27.82,North,7,0.0,0.0,25,0.00,,---,0.00,VWS V14.01,2013-02-27 14:35:00,
2013-02-27 06:40:00,33.3,1.2,27.82,NNW,333,0.0,0.0,25,0.00,,---,0.00,VWS V14.01,2013-02-27 14:40:00,
2013-02-27 06:45:00,33.3,1.2,27.82,North,2,0.0,0.0,25,0.00,,---,0.00,VWS V14.01,2013-02-27 14:45:00,
2013-02-27 06:50:00,33.3,1.2,27.82,North,357,0.0,0.0,25,0.00,,---,0.00,VWS V14.01,2013-02-27 14:50:00,
2013-02-27 06:55:00,33.8,-1.0,27.82,North,357,0.0,0.0,22,0.00,,---,0.00,VWS V14.01,2013-02-27 14:55:00,
2013-02-27 07:00:00,34.0,-0.9,27.82,North,353,0.0,0.0,22,0.00,,---,0.00,VWS V14.01,2013-02-27 15:00:00,
2013-02-27 07:05:00,34.2,-0.7,27.82,North,0,0.0,0.0,22,0.00,,---,0.00,VWS V14.01,2013-02-27 15:05:00,
2013-02-27 07:10:00,34.2,-0.7,27.82,WNW,301,0.0,0.0,22,0.00,,---,0.00,VWS V14.01,2013-02-27 15:10:00,
2013-02-27 07:15:00,34.5,-0.4,27.82,NW,324,0.0,0.0,22,0.00,,---,0.00,VWS V14.01,2013-02-27 15:15:00,
2013-02-27 07:20:00,35.1,0.1,27.82,NNW,333,0.0,0.0,22,0.00,,---,0.00,VWS V14.01,2013-02-27 15:20:00,
2013-02-27 07:25:00,35.2,0.2,27.82,NNW,331,0.0,0.0,22,0.00,,---,0.00,VWS V14.01,2013-02-27 15:25:00,
2013-02-27 07:30:00,35.4,0.4,27.82,South,173,0.0,0.0,22,0.00,,---,0.00,VWS V14.01,2013-02-27 15:30:00,
2013-02-27 07:34:00,36.7,-1.7,27.82,SSE,168,0.0,0.0,19,0.00,,---,0.00,VWS V14.01,2013-02-27 15:34:00,
2013-02-27 07:39:00,37.6,-0.9,27.82,South,173,0.0,0.0,19,0.00,,---,0.00,VWS V14.01,2013-02-27 15:39:00,
2013-02-27 07:44:00,38.1,-0.5,27.82,South,183,0.0,0.0,19,0.00,,---,0.00,VWS V14.01,2013-02-27 15:44:00,
2013-02-27 07:49:00,37.9,-0.6,27.82,South,176,0.0,0.0,19,0.00,,---,0.00,VWS V14.01,2013-02-27 15:49:00,
2013-02-27 07:54:00,38.1,-0.5,27.82,South,177,0.0,0.0,19,0.00,,---,0.00,VWS V14.01,2013-02-27 15:54:00,
2013-02-27 07:59:00,38.3,-0.3,27.82,SSE,158,0.0,0.0,19,0.00,,---,0.00,VWS V14.01,2013-02-27 15:59:00,
2013-02-27 08:04:00,38.3,-0.3,27.82,SSE,168,0.0,0.0,19,0.00,,---,0.00,VWS V14.01,2013-02-27 16:04:00,
2013-02-27 08:09:00,38.3,-0.3,27.82,SSW,192,0.0,0.0,19,0.00,,---,0.00,VWS V14.01,2013-02-27 16:09:00,
2013-02-27 08:14:00,38.3,-0.3,27.82,SSW,192,0.0,0.0,19,0.00,,---,0.00,VWS V14.01,2013-02-27 16:14:00,
2013-02-27 08:19:00,38.1,-0.5,27.82,SSE,166,0.0,0.0,19,0.00,,---,0.00,VWS V14.01,2013-02-27 16:19:00,
2013-02-27 08:24:00,38.1,-0.5,27.82,South,169,0.0,0.0,19,0.00,,---,0.00,VWS V14.01,2013-02-27 16:24:00,
2013-02-27 08:29:00,38.1,-0.5,27.82,SE,142,0.0,0.0,19,0.00,,---,0.00,VWS V14.01,2013-02-27 16:29:00,
2013-02-27 08:34:00,38.3,-0.3,27.82,SSE,160,0.0,0.0,19,0.00,,---,0.00,VWS V14.01,2013-02-27 16:34:00,
2013-02-27 08:39:00,38.5,-0.2,27.82,South,169,0.0,0.0,19,0.00,,---,0.00,VWS V14.01,2013-02-27 16:39:00,
2013-02-27 08:44:00,38.8,0.1,27.82,SSE,164,0.0,0.0,19,0.00,,---,0.00,VWS V14.01,2013-02-27 16:44:00,
2013-02-27 08:49:00,39.0,0.3,27.85,SSE,154,0.0,0.0,19,0.00,,---,0.00,VWS V14.01,2013-02-27 16:49:00,
2013-02-27 08:54:00,39.6,-0.4,27.85,South,178,0.0,0.0,18,0.00,,---,0.00,VWS V14.01,2013-02-27 16:54:00,
2013-02-27 08:59:00,39.2,-0.7,27.85,SSE,163,0.0,0.0,18,0.00,,---,0.00,VWS V14.01,2013-02-27 16:59:00,
2013-02-27 09:04:00,39.0,0.3,27.85,SSW,197,0.0,0.0,19,0.00,,---,0.00,VWS V14.01,2013-02-27 17:04:00,
2013-02-27 09:09:00,38.8,0.1,27.85,SSE,162,0.0,0.0,19,0.00,,---,0.00,VWS V14.01,2013-02-27 17:09:00,
2013-02-27 09:14:00,38.7,0.0,27.85,South,172,0.0,0.0,19,0.00,,---,0.00,VWS V14.01,2013-02-27 17:14:00,
2013-02-27 09:19:00,38.8,0.1,27.85,South,183,0.0,0.0,19,0.00,,---,0.00,VWS V14.01,2013-02-27 17:19:00,
2013-02-27 09:24:00,38.8,0.1,27.85,SSE,151,0.0,0.0,19,0.00,,---,0.00,VWS V14.01,2013-02-27 17:24:00,
2013-02-27 09:29:00,38.8,0.1,27.85,SSE,167,0.0,0.0,19,0.00,,---,0.00,VWS V14.01,2013-02-27 17:29:00,
2013-02-27 09:34:00,39.2,-0.7,27.85,SSW,192,0.0,0.0,18,0.00,,---,0.00,VWS V14.01,2013-02-27 17:34:00,
2013-02-27 09:39:00,39.4,-0.6,27.85,South,175,0.0,0.0,18,0.00,,---,0.00,VWS V14.01,2013-02-27 17:39:00,
2013-02-27 09:44:00,39.2,-0.7,27.85,SSE,158,0.0,0.0,18,0.00,,---,0.00,VWS V14.01,2013-02-27 17:44:00,
2013-02-27 09:49:00,39.0,0.3,27.85,ESE,122,0.0,0.0,19,0.00,,---,0.00,VWS V14.01,2013-02-27 17:49:00,
2013-02-27 09:54:00,39.0,0.3,27.85,SSE,161,0.0,0.0,19,0.00,,---,0.00,VWS V14.01,2013-02-27 17:54:00,
2013-02-27 09:59:00,39.0,0.3,27.85,South,182,0.0,0.0,19,0.00,,---,0.00,VWS V14.01,2013-02-27 17:59:00,
2013-02-27 10:04:00,39.2,-0.7,27.85,South,187,0.0,0.0,18,0.00,,---,0.00,VWS V14.01,2013-02-27 18:04:00,
2013-02-27 10:09:00,39.2,-0.7,27.85,South,171,0.0,0.0,18,0.00,,---,0.00,VWS V14.01,2013-02-27 18:09:00,
2013-02-27 10:14:00,39.4,-0.6,27.85,SSE,148,0.0,0.0,18,0.00,,---,0.00,VWS V14.01,2013-02-27 18:14:00,
2013-02-27 10:19:00,39.6,-0.4,27.85,South,169,0.0,0.0,18,0.00,,---,0.00,VWS V14.01,2013-02-27 18:19:00,
2013-02-27 10:24:00,39.7,-0.3,27.85,SSE,155,0.0,0.0,18,0.00,,---,0.00,VWS V14.01,2013-02-27 18:24:00,
2013-02-27 10:29:00,39.9,-0.1,27.85,SSE,162,0.0,0.0,18,0.00,,---,0.00,VWS V14.01,2013-02-27 18:29:00,
2013-02-27 10:34:00,41.0,0.8,27.85,South,183,0.0,0.0,18,0.00,,---,0.00,VWS V14.01,2013-02-27 18:34:00,
2013-02-27 10:39:00,41.9,1.5,27.85,SSE,155,0.0,0.0,18,0.00,,---,0.00,VWS V14.01,2013-02-27 18:39:00,
2013-02-27 10:44:00,42.4,1.9,27.85,South,176,0.0,0.0,18,0.00,,---,0.00,VWS V14.01,2013-02-27 18:44:00,
2013-02-27 10:49:00,42.8,2.2,27.85,South,188,0.0,0.0,18,0.00,,---,0.00,VWS V14.01,2013-02-27 18:49:00,
2013-02-27 10:54:00,42.8,2.2,27.85,SSE,162,0.0,0.0,18,0.00,,---,0.00,VWS V14.01,2013-02-27 18:54:00,
2013-02-27 10:59:00,43.3,2.7,27.85,SSE,164,0.0,0.0,18,0.00,,---,0.00,VWS V14.01,2013-02-27 18:59:00,
2013-02-27 11:04:00,43.3,2.7,27.85,SSE,163,0.0,0.0,18,0.00,,---,0.00,VWS V14.01,2013-02-27 19:04:00,
2013-02-27 11:09:00,42.8,2.2,27.85,SSW,196,0.0,0.0,18,0.00,,---,0.00,VWS V14.01,2013-02-27 19:09:00,
2013-02-27 11:14:00,42.8,2.2,27.85,SE,124,0.0,0.0,18,0.00,,---,0.00,VWS V14.01,2013-02-27 19:14:00,
2013-02-27 11:19:00,42.8,2.2,27.85,South,185,0.0,0.0,18,0.00,,---,0.00,VWS V14.01,2013-02-27 19:19:00,
2013-02-27 11:24:00,42.3,1.8,27.85,South,171,0.0,0.0,18,0.00,,---,0.00,VWS V14.01,2013-02-27 19:24:00,
2013-02-27 11:29:00,42.4,1.9,27.85,SSE,168,0.0,0.0,18,0.00,,---,0.00,VWS V14.01,2013-02-27 19:29:00,
2013-02-27 11:34:00,42.4,1.9,27.85,SSW,201,0.0,0.0,18,0.00,,---,0.00,VWS V14.01,2013-02-27 19:34:00,
2013-02-27 11:39:00,42.8,2.2,27.85,ESE,120,0.0,0.0,18,0.00,,---,0.00,VWS V14.01,2013-02-27 19:39:00,
2013-02-27 11:44:00,42.3,1.8,27.85,SSE,162,0.0,0.0,18,0.00,,---,0.00,VWS V14.01,2013-02-27 19:44:00,
2013-02-27 11:49:00,41.9,1.5,27.85,SSE,159,0.0,0.0,18,0.00,,---,0.00,VWS V14.01,2013-02-27 19:49:00,
2013-02-27 11:54:00,41.9,1.5,27.85,SSE,166,0.0,0.0,18,0.00,,---,0.00,VWS V14.01,2013-02-27 19:54:00,
2013-02-27 11:59:00,41.9,1.5,27.85,SSE,168,0.0,0.0,18,0.00,,---,0.00,VWS V14.01,2013-02-27 19:59:00,
2013-02-27 12:04:00,42.3,1.8,27.85,South,171,0.0,0.0,18,0.00,,---,0.00,VWS V14.01,2013-02-27 20:04:00,
2013-02-27 12:09:00,42.8,2.2,27.85,South,173,0.0,0.0,18,0.00,,---,0.00,VWS V14.01,2013-02-27 20:09:00,
2013-02-27 12:14:00,43.3,2.7,27.85,South,174,0.0,0.0,18,0.00,,---,0.00,VWS V14.01,2013-02-27 20:14:00,
2013-02-27 12:19:00,43.9,3.1,27.85,South,176,0.0,0.0,18,0.00,,---,0.00,VWS V14.01,2013-02-27 20:19:00,
2013-02-27 12:24:00,43.3,2.7,27.85,South,187,0.0,0.0,18,0.00,,---,0.00,VWS V14.01,2013-02-27 20:24:00,
2013-02-27 12:29:00,44.1,3.3,27.85,SSE,154,0.0,0.0,18,0.00,,---,0.00,VWS V14.01,2013-02-27 20:29:00,
2013-02-27 12:34:00,44.4,3.6,27.85,South,181,0.0,0.0,18,0.00,,---,0.00,VWS V14.01,2013-02-27 20:34:00,
2013-02-27 12:39:00,44.8,2.6,27.85,SSW,204,0.0,0.0,17,0.00,,---,0.00,VWS V14.01,2013-02-27 20:39:00,
2013-02-27 12:44:00,45.5,3.2,27.85,South,175,0.0,0.0,17,0.00,,---,0.00,VWS V14.01,2013-02-27 20:44:00,
2013-02-27 12:49:00,45.9,3.5,27.82,SSE,159,0.0,0.0,17,0.00,,---,0.00,VWS V14.01,2013-02-27 20:49:00,
2013-02-27 12:54:00,46.2,3.8,27.82,SSE,162,0.0,0.0,17,0.00,,---,0.00,VWS V14.01,2013-02-27 20:54:00,
2013-02-27 12:59:00,46.2,3.8,27.82,SSE,163,0.0,0.0,17,0.00,,---,0.00,VWS V14.01,2013-02-27 20:59:00,
2013-02-27 13:04:00,45.7,3.4,27.82,SSE,150,0.0,0.0,17,0.00,,---,0.00,VWS V14.01,2013-02-27 21:04:00,
2013-02-27 13:09:00,45.3,3.1,27.82,SSE,154,0.0,0.0,17,0.00,,---,0.00,VWS V14.01,2013-02-27 21:09:00,
2013-02-27 13:14:00,44.6,2.5,27.82,SE,144,0.0,0.0,17,0.00,,---,0.00,VWS V14.01,2013-02-27 21:14:00,
2013-02-27 13:19:00,44.2,3.4,27.85,SSE,161,0.0,0.0,18,0.00,,---,0.00,VWS V14.01,2013-02-27 21:19:00,
2013-02-27 13:24:00,43.5,2.8,27.85,SSE,160,0.0,0.0,18,0.00,,---,0.00,VWS V14.01,2013-02-27 21:24:00,
2013-02-27 13:29:00,43.2,2.5,27.85,South,170,0.0,0.0,18,0.00,,---,0.00,VWS V14.01,2013-02-27 21:29:00,
2013-02-27 13:34:00,43.2,2.5,27.85,SSE,165,0.0,0.0,18,0.00,,---,0.00,VWS V14.01,2013-02-27 21:34:00,
2013-02-27 13:39:00,43.3,2.7,27.85,South,174,0.0,0.0,18,0.00,,---,0.00,VWS V14.01,2013-02-27 21:39:00,
2013-02-27 13:44:00,43.5,2.8,27.85,SSE,147,0.0,0.0,18,0.00,,---,0.00,VWS V14.01,2013-02-27 21:44:00,
2013-02-27 13:49:00,43.9,3.1,27.82,SSE,154,0.0,0.0,18,0.00,,---,0.00,VWS V14.01,2013-02-27 21:49:00,
2013-02-27 13:54:00,44.2,3.4,27.82,SSE,152,0.0,0.0,18,0.00,,---,0.00,VWS V14.01,2013-02-27 21:54:00,
2013-02-27 13:59:00,44.8,2.6,27.82,SSE,153,0.0,0.0,17,0.00,,---,0.00,VWS V14.01,2013-02-27 21:59:00,
2013-02-27 14:04:00,45.3,3.1,27.82,SSE,160,0.0,0.0,17,0.00,,---,0.00,VWS V14.01,2013-02-27 22:04:00,
2013-02-27 14:09:00,45.0,2.8,27.82,SE,143,0.0,0.0,17,0.00,,---,0.00,VWS V14.01,2013-02-27 22:09:00,
2013-02-27 14:14:00,44.4,3.6,27.82,SSE,160,0.0,0.0,18,0.00,,---,0.00,VWS V14.01,2013-02-27 22:14:00,
2013-02-27 14:19:00,44.1,3.3,27.85,SSE,158,0.0,0.0,18,0.00,,---,0.00,VWS V14.01,2013-02-27 22:19:00,
2013-02-27 14:24:00,43.7,3.0,27.85,South,173,0.0,0.0,18,0.00,,---,0.00,VWS V14.01,2013-02-27 22:24:00,
2013-02-27 14:29:00,43.5,2.8,27.85,South,174,0.0,0.0,18,0.00,,---,0.00,VWS V14.01,2013-02-27 22:29:00,
2013-02-27 14:34:00,43.5,2.8,27.85,South,181,0.0,0.0,18,0.00,,---,0.00,VWS V14.01,2013-02-27 22:34:00,
2013-02-27 14:39:00,43.7,3.0,27.85,South,172,0.0,0.0,18,0.00,,---,0.00,VWS V14.01,2013-02-27 22:39:00,
2013-02-27 14:44:00,43.9,3.1,27.85,South,182,0.0,0.0,18,0.00,,---,0.00,VWS V14.01,2013-02-27 22:44:00,
2013-02-27 14:49:00,43.5,2.8,27.85,SE,146,0.0,0.0,18,0.00,,---,0.00,VWS V14.01,2013-02-27 22:49:00,
2013-02-27 14:54:00,43.7,3.0,27.85,SSE,152,0.0,0.0,18,0.00,,---,0.00,VWS V14.01,2013-02-27 22:54:00,
2013-02-27 14:59:00,43.7,3.0,27.85,South,177,0.0,0.0,18,0.00,,---,0.00,VWS V14.01,2013-02-27 22:59:00,
2013-02-27 15:04:00,43.7,3.0,27.85,SE,139,0.0,0.0,18,0.00,,---,0.00,VWS V14.01,2013-02-27 23:04:00,
2013-02-27 15:09:00,43.5,2.8,27.85,South,169,0.0,0.0,18,0.00,,---,0.00,VWS V14.01,2013-02-27 23:09:00,
2013-02-27 15:14:00,43.7,3.0,27.85,South,169,0.0,0.0,18,0.00,,---,0.00,VWS V14.01,2013-02-27 23:14:00,
2013-02-27 15:19:00,43.9,3.1,27.85,SSE,160,0.0,0.0,18,0.00,,---,0.00,VWS V14.01,2013-02-27 23:19:00,
2013-02-27 15:24:00,44.2,3.4,27.85,SSE,160,0.0,0.0,18,0.00,,---,0.00,VWS V14.01,2013-02-27 23:24:00,
2013-02-27 15:29:00,44.4,3.6,27.85,SSE,153,0.0,0.0,18,0.00,,---,0.00,VWS V14.01,2013-02-27 23:29:00,
2013-02-27 15:34:00,44.6,2.5,27.85,SSE,157,0.0,0.0,17,0.00,,---,0.00,VWS V14.01,2013-02-27 23:34:00,
2013-02-27 15:39:00,44.4,3.6,27.85,SSE,160,0.0,0.0,18,0.00,,---,0.00,VWS V14.01,2013-02-27 23:39:00,
2013-02-27 15:44:00,44.2,3.4,27.85,South,170,0.0,0.0,18,0.00,,---,0.00,VWS V14.01,2013-02-27 23:44:00,
2013-02-27 15:49:00,44.1,3.3,27.82,SE,146,0.0,0.0,18,0.00,,---,0.00,VWS V14.01,2013-02-27 23:49:00,
2013-02-27 15:54:00,44.6,2.5,27.82,SE,145,0.0,0.0,17,0.00,,---,0.00,VWS V14.01,2013-02-27 23:54:00,
2013-02-27 15:59:00,45.1,2.9,27.82,SE,135,0.0,0.0,17,0.00,,---,0.00,VWS V14.01,2013-02-27 23:59:00,
2013-02-27 16:04:00,45.1,2.9,27.82,SSE,166,0.0,0.0,17,0.00,,---,0.00,VWS V14.01,2013-02-28 00:04:00,
2013-02-27 16:09:00,44.8,2.6,27.82,SSE,164,0.0,0.0,17,0.00,,---,0.00,VWS V14.01,2013-02-28 00:09:00,
2013-02-27 16:14:00,44.8,2.6,27.82,SSE,163,0.0,0.0,17,0.00,,---,0.00,VWS V14.01,2013-02-28 00:14:00,
2013-02-27 16:19:00,44.6,2.5,27.85,South,178,0.0,0.0,17,0.00,,---,0.00,VWS V14.01,2013-02-28 00:19:00,
2013-02-27 16:24:00,44.6,2.5,27.85,SSE,153,0.0,0.0,17,0.00,,---,0.00,VWS V14.01,2013-02-28 00:24:00,
2013-02-27 16:29:00,44.2,3.4,27.85,SSE,167,0.0,0.0,18,0.00,,---,0.00,VWS V14.01,2013-02-28 00:29:00,
2013-02-27 16:34:00,43.9,3.1,27.85,SSE,168,0.0,0.0,18,0.00,,---,0.00,VWS V14.01,2013-02-28 00:34:00,
2013-02-27 16:39:00,43.9,3.1,27.85,South,170,0.0,0.0,18,0.00,,---,0.00,VWS V14.01,2013-02-28 00:39:00,
2013-02-27 16:44:00,43.7,3.0,27.85,SSE,167,0.0,0.0,18,0.00,,---,0.00,VWS V14.01,2013-02-28 00:44:00,
2013-02-27 16:49:00,43.5,2.8,27.85,SE,145,0.0,0.0,18,0.00,,---,0.00,VWS V14.01,2013-02-28 00:49:00,
2013-02-27 16:54:00,43.3,2.7,27.85,SSE,150,0.0,0.0,18,0.00,,---,0.00,VWS V14.01,2013-02-28 00:54:00,
2013-02-27 16:59:00,43.5,2.8,27.85,South,170,0.0,0.0,18,0.00,,---,0.00,VWS V14.01,2013-02-28 00:59:00,
2013-02-27 17:04:00,43.5,2.8,27.85,South,171,0.0,0.0,18,0.00,,---,0.00,VWS V14.01,2013-02-28 01:04:00,
2013-02-27 17:09:00,43.2,2.5,27.85,SSE,164,0.0,0.0,18,0.00,,---,0.00,VWS V14.01,2013-02-28 01:09:00,
2013-02-27 17:14:00,42.8,2.2,27.85,SSE,164,0.0,0.0,18,0.00,,---,0.00,VWS V14.01,2013-02-28 01:14:00,
2013-02-27 17:19:00,42.4,1.9,27.85,South,175,0.0,0.0,18,0.00,,---,0.00,VWS V14.01,2013-02-28 01:19:00,
2013-02-27 17:24:00,42.1,1.6,27.85,SSE,156,0.0,0.0,18,0.00,,---,0.00,VWS V14.01,2013-02-28 01:24:00,
2013-02-27 17:29:00,41.7,1.4,27.85,SSE,155,0.0,0.0,18,0.00,,---,0.00,VWS V14.01,2013-02-28 01:29:00,
2013-02-27 17:34:00,41.4,1.0,27.85,SSE,155,0.0,0.0,18,0.00,,---,0.00,VWS V14.01,2013-02-28 01:34:00,
2013-02-27 17:39:00,41.0,0.8,27.85,SSE,155,0.0,0.0,18,0.00,,---,0.00,VWS V14.01,2013-02-28 01:39:00,
2013-02-27 17:44:00,40.8,0.6,27.85,SSE,154,0.0,0.0,18,0.00,,---,0.00,VWS V14.01,2013-02-28 01:44:00,
2013-02-27 17:49:00,40.5,0.3,27.85,SSE,151,0.0,0.0,18,0.00,,---,0.00,VWS V14.01,2013-02-28 01:49:00,
2013-02-27 17:54:00,40.3,0.2,27.85,SE,145,0.0,0.0,18,0.00,,---,0.00,VWS V14.01,2013-02-28 01:54:00,
2013-02-27 17:59:00,39.9,-0.1,27.85,SSE,147,0.0,0.0,18,0.00,,---,0.00,VWS V14.01,2013-02-28 01:59:00,
2013-02-27 18:04:00,39.7,3.0,27.85,SSE,147,0.0,0.0,21,0.00,,---,0.00,VWS V14.01,2013-02-28 02:04:00,
2013-02-27 18:09:00,39.4,2.7,27.85,SE,139,0.0,0.0,21,0.00,,---,0.00,VWS V14.01,2013-02-28 02:09:00,
2013-02-27 18:14:00,39.2,2.6,27.85,SE,140,0.0,0.0,21,0.00,,---,0.00,VWS V14.01,2013-02-28 02:14:00,
2013-02-27 18:19:00,39.0,2.4,27.85,SSE,150,0.0,0.0,21,0.00,,---,0.00,VWS V14.01,2013-02-28 02:19:00,
2013-02-27 18:24:00,38.8,2.3,27.85,SSE,148,0.0,0.0,21,0.00,,---,0.00,VWS V14.01,2013-02-28 02:24:00,
2013-02-27 18:29:00,38.7,2.1,27.85,SE,145,0.0,0.0,21,0.00,,---,0.00,VWS V14.01,2013-02-28 02:29:00,
2013-02-27 18:34:00,38.7,2.1,27.85,SE,144,0.0,0.0,21,0.00,,---,0.00,VWS V14.01,2013-02-28 02:34:00,
2013-02-27 18:39:00,38.7,2.1,27.85,SE,139,0.0,0.0,21,0.00,,---,0.00,VWS V14.01,2013-02-28 02:39:00,
2013-02-27 18:44:00,38.7,2.1,27.85,SE,137,0.0,0.0,21,0.00,,---,0.00,VWS V14.01,2013-02-28 02:44:00,
2013-02-27 18:49:00,38.5,2.0,27.82,SE,137,0.0,0.0,21,0.00,,---,0.00,VWS V14.01,2013-02-28 02:49:00,
2013-02-27 18:54:00,38.5,2.0,27.82,SE,139,0.0,0.0,21,0.00,,---,0.00,VWS V14.01,2013-02-28 02:54:00,
2013-02-27 18:59:00,38.5,2.0,27.82,SE,139,0.0,0.0,21,0.00,,---,0.00,VWS V14.01,2013-02-28 02:59:00,
2013-02-27 19:04:00,38.5,2.0,27.82,SE,146,0.0,0.0,21,0.00,,---,0.00,VWS V14.01,2013-02-28 03:04:00,
2013-02-27 19:09:00,38.5,2.0,27.82,SSE,147,0.0,0.0,21,0.00,,---,0.00,VWS V14.01,2013-02-28 03:09:00,
2013-02-27 19:14:00,38.5,2.0,27.82,SSE,152,0.0,0.0,21,0.00,,---,0.00,VWS V14.01,2013-02-28 03:14:00,
2013-02-27 19:19:00,38.5,2.0,27.82,South,173,0.0,0.0,21,0.00,,---,0.00,VWS V14.01,2013-02-28 03:19:00,
2013-02-27 19:24:00,38.7,2.1,27.82,South,169,0.0,0.0,21,0.00,,---,0.00,VWS V14.01,2013-02-28 03:24:00,
2013-02-27 19:29:00,38.8,2.3,27.82,South,169,0.0,0.0,21,0.00,,---,0.00,VWS V14.01,2013-02-28 03:29:00,
2013-02-27 19:34:00,38.8,2.3,27.82,South,169,0.0,0.0,21,0.00,,---,0.00,VWS V14.01,2013-02-28 03:34:00,
2013-02-27 19:39:00,39.2,2.6,27.82,South,169,0.0,0.0,21,0.00,,---,0.00,VWS V14.01,2013-02-28 03:39:00,
2013-02-27 19:44:00,39.2,2.6,27.82,South,169,0.0,0.0,21,0.00,,---,0.00,VWS V14.01,2013-02-28 03:44:00,
2013-02-27 19:49:00,39.2,2.6,27.82,South,169,0.0,0.0,21,0.00,,---,0.00,VWS V14.01,2013-02-28 03:49:00,
2013-02-27 19:54:00,39.4,2.7,27.82,SE,136,0.0,0.0,21,0.00,,---,0.00,VWS V14.01,2013-02-28 03:54:00,
2013-02-27 19:59:00,39.4,2.7,27.82,SE,137,0.0,0.0,21,0.00,,---,0.00,VWS V14.01,2013-02-28 03:59:00,
2013-02-27 20:04:00,39.2,2.6,27.82,SE,137,0.0,0.0,21,0.00,,---,0.00,VWS V14.01,2013-02-28 04:04:00,
2013-02-27 20:09:00,39.2,2.6,27.82,SE,133,0.0,0.0,21,0.00,,---,0.00,VWS V14.01,2013-02-28 04:09:00,
2013-02-27 20:14:00,38.7,2.1,27.82,SE,133,0.0,0.0,21,0.00,,---,0.00,VWS V14.01,2013-02-28 04:14:00,
2013-02-27 20:19:00,38.5,2.0,27.82,ESE,118,0.0,0.0,21,0.00,,---,0.00,VWS V14.01,2013-02-28 04:19:00,
2013-02-27 20:24:00,37.9,4.4,27.82,NNW,338,0.0,0.0,24,0.00,,---,0.00,VWS V14.01,2013-02-28 04:24:00,
2013-02-27 20:29:00,37.8,4.2,27.82,North,357,0.0,0.0,24,0.00,,---,0.00,VWS V14.01,2013-02-28 04:29:00,
2013-02-27 20:34:00,37.6,4.1,27.82,NE,44,0.0,0.0,24,0.00,,---,0.00,VWS V14.01,2013-02-28 04:34:00,
2013-02-27 20:39:00,37.4,3.9,27.82,NNE,15,0.0,0.0,24,0.00,,---,0.00,VWS V14.01,2013-02-28 04:39:00,
2013-02-27 20:44:00,37.4,3.9,27.82,North,350,0.0,0.0,24,0.00,,---,0.00,VWS V14.01,2013-02-28 04:44:00,
2013-02-27 20:49:00,37.4,3.9,27.82,North,357,0.0,0.0,24,0.00,,---,0.00,VWS V14.01,2013-02-28 04:49:00,
2013-02-27 20:54:00,37.4,3.9,27.82,North,353,0.0,0.0,24,0.00,,---,0.00,VWS V14.01,2013-02-28 04:54:00,
2013-02-27 20:59:00,37.2,3.8,27.82,North,2,0.0,0.0,24,0.00,,---,0.00,VWS V14.01,2013-02-28 04:59:00,
2013-02-27 21:00:00,37.2,3.8,27.82,North,353,0.0,0.0,24,0.00,,---,0.00,VWS V14.01,2013-02-28 05:00:00,
2013-02-27 21:05:00,37.2,3.8,27.82,NNW,343,0.0,0.0,24,0.00,,---,0.00,VWS V14.01,2013-02-28 05:05:00,
2013-02-27 21:10:00,36.9,6.0,27.82,North,353,0.0,0.0,27,0.00,,---,0.00,VWS V14.01,2013-02-28 05:10:00,
2013-02-27 21:15:00,36.9,7.6,27.82,North,357,0.0,0.0,29,0.00,,---,0.00,VWS V14.01,2013-02-28 05:15:00,
2013-02-27 21:20:00,36.7,7.4,27.82,NNE,16,0.0,0.0,29,0.00,,---,0.00,VWS V14.01,2013-02-28 05:20:00,
2013-02-27 21:25:00,36.7,8.2,27.82,NNE,23,0.0,0.0,30,0.00,,---,0.00,VWS V14.01,2013-02-28 05:25:00,
2013-02-27 21:30:00,36.5,8.0,27.82,NNE,12,0.0,0.0,30,0.00,,---,0.00,VWS V14.01,2013-02-28 05:30:00,
2013-02-27 21:35:00,36.3,7.9,27.82,NE,37,0.0,0.0,30,0.00,,---,0.00,VWS V14.01,2013-02-28 05:35:00,
2013-02-27 21:40:00,36.3,7.9,27.82,NNE,22,0.0,0.0,30,0.00,,---,0.00,VWS V14.01,2013-02-28 05:40:00,
2013-02-27 21:45:00,36.3,7.9,27.82,NNE,16,0.0,0.0,30,0.00,,---,0.00,VWS V14.01,2013-02-28 05:45:00,
2013-02-27 21:50:00,36.5,8.0,27.85,NNW,335,0.0,0.0,30,0.00,,---,0.00,VWS V14.01,2013-02-28 05:50:00,
2013-02-27 21:55:00,36.5,8.0,27.85,North,353,0.0,0.0,30,0.00,,---,0.00,VWS V14.01,2013-02-28 05:55:00,
2013-02-27 22:00:00,36.7,8.2,27.85,North,357,0.0,0.0,30,0.00,,---,0.00,VWS V14.01,2013-02-28 06:00:00,
2013-02-27 22:05:00,36.7,8.2,27.85,NNW,337,0.0,0.0,30,0.00,,---,0.00,VWS V14.01,2013-02-28 06:05:00,
2013-02-27 22:10:00,36.7,8.2,27.85,North,0,0.0,0.0,30,0.00,,---,0.00,VWS V14.01,2013-02-28 06:10:00,
2013-02-27 22:15:00,36.7,8.2,27.85,NNE,21,0.0,0.0,30,0.00,,---,0.00,VWS V14.01,2013-02-28 06:15:00,
2013-02-27 22:20:00,36.9,8.3,27.85,North,9,0.0,0.0,30,0.00,,---,0.00,VWS V14.01,2013-02-28 06:20:00,
2013-02-27 22:25:00,36.9,8.3,27.85,NE,35,0.0,0.0,30,0.00,,---,0.00,VWS V14.01,2013-02-28 06:25:00,
2013-02-27 22:30:00,36.7,8.2,27.85,NE,47,0.0,0.0,30,0.00,,---,0.00,VWS V14.01,2013-02-28 06:30:00,
2013-02-27 22:35:00,36.7,8.2,27.85,NE,43,0.0,0.0,30,0.00,,---,0.00,VWS V14.01,2013-02-28 06:35:00,
2013-02-27 22:40:00,36.3,7.9,27.85,ENE,57,0.0,0.0,30,0.00,,---,0.00,VWS V14.01,2013-02-28 06:40:00,
2013-02-27 22:45:00,35.8,7.4,27.85,ENE,60,0.0,0.0,30,0.00,,---,0.00,VWS V14.01,2013-02-28 06:45:00,
2013-02-27 22:50:00,35.4,7.8,27.85,NE,55,0.0,0.0,31,0.00,,---,0.00,VWS V14.01,2013-02-28 06:50:00,
2013-02-27 22:55:00,35.1,7.5,27.85,East,82,0.0,0.0,31,0.00,,---,0.00,VWS V14.01,2013-02-28 06:55:00,
2013-02-27 23:00:00,35.1,8.2,27.85,East,87,0.0,0.0,32,0.00,,---,0.00,VWS V14.01,2013-02-28 07:00:00,
2013-02-27 23:05:00,35.1,8.2,27.85,East,97,0.0,0.0,32,0.00,,---,0.00,VWS V14.01,2013-02-28 07:05:00,
2013-02-27 23:10:00,35.2,8.4,27.85,East,97,0.0,0.0,32,0.00,,---,0.00,VWS V14.01,2013-02-28 07:10:00,
2013-02-27 23:15:00,35.2,8.4,27.85,East,97,0.0,0.0,32,0.00,,---,0.00,VWS V14.01,2013-02-28 07:15:00,
2013-02-27 23:20:00,35.4,8.5,27.85,East,97,0.0,0.0,32,0.00,,---,0.00,VWS V14.01,2013-02-28 07:20:00,
2013-02-27 23:25:00,35.4,8.5,27.85,NNE,21,0.0,0.0,32,0.00,,---,0.00,VWS V14.01,2013-02-28 07:25:00,
2013-02-27 23:30:00,35.4,8.5,27.85,NNE,21,0.0,0.0,32,0.00,,---,0.00,VWS V14.01,2013-02-28 07:30:00,
2013-02-27 23:35:00,35.6,8.7,27.82,NNE,21,0.0,0.0,32,0.00,,---,0.00,VWS V14.01,2013-02-28 07:35:00,
2013-02-27 23:40:00,35.6,8.0,27.82,NE,37,0.0,0.0,31,0.00,,---,0.00,VWS V14.01,2013-02-28 07:40:00,
2013-02-27 23:45:00,35.6,8.0,27.82,ENE,57,0.0,0.0,31,0.00,,---,0.00,VWS V14.01,2013-02-28 07:45:00,
2013-02-27 23:50:00,35.2,8.4,27.82,NE,53,0.0,0.0,32,0.00,,---,0.00,VWS V14.01,2013-02-28 07:50:00,
2013-02-27 23:55:00,34.9,8.0,27.82,NNW,333,0.0,0.0,32,0.00,,---,0.00,VWS V14.01,2013-02-28 07:55:00,